Flight Track Log - Related Links

Times and Time Zones

All times are in EDT time to prevent confusion due to time zone crossing. See the ASQ4516 flight status page for this flight to view local times or setup timezone preferences in your user account.

Time Position Orientation Groundspeed Altitude Reporting Facility
EDT Latitude Longitude Course Direction KTS MPH feet Rate Location/Type
Thu 10:32:00 PM 29.9639 -95.3433 189° South 150 173 700  Level Houston Center
Thu 10:33:26 PM 29.9175 -95.2742 128° Southeast 231 266 2,900 1,567 Climbing Houston Center
Thu 10:34:14 PM 29.8875 -95.2303 128° Southeast 237 273 4,200 1,927 Climbing Houston Center
Thu 10:35:15 PM 29.8344 -95.1739 137° Southeast 263 303 6,400 2,016 Climbing Houston Center
Thu 10:36:16 PM 29.7575 -95.1889 190° South 291 335 8,300 1,820 Climbing Houston Center
Thu 10:37:00 PM 29.3997 -95.4501 189° South  Level FlightAware Approximate
Thu 10:37:17 PM 29.6828 -95.2203 200° South 291 335 10,100  Level Houston Center
Thu 10:38:18 PM 29.5794 -95.2608 199° South 342 394 10,900 885 Climbing Houston Center
Thu 10:39:19 PM 29.4847 -95.2994 200° South 363 418 11,900 984 Climbing Houston Center
Thu 10:40:20 PM 29.3872 -95.3386 199° South 371 427 12,900 976 Climbing Houston Center
Thu 10:41:22 PM 29.2886 -95.3781 199° South 376 433 13,900 976 Climbing Houston Center
Thu 10:42:23 PM 29.1883 -95.4194 200° South 381 438 14,900 984 Climbing Houston Center
Thu 10:43:24 PM 29.0869 -95.4600 199° South 384 442 15,900 984 Climbing Houston Center
Thu 10:44:25 PM 28.9861 -95.5003 199° South 384 442 16,900 984 Climbing Houston Center
Thu 10:45:26 PM 28.8969 -95.5692 214° Southwest 384 442 17,900 1,082 Climbing Houston Center
Thu 10:46:27 PM 28.7919 -95.6553 216° Southwest 386 444 19,100 1,082 Climbing Houston Center
Thu 10:47:28 PM 28.7025 -95.7247 214° Southwest 388 447 20,100 934 Climbing Houston Center
Thu 10:48:29 PM 28.6114 -95.7972 215° Southwest 395 455 21,000 885 Climbing Houston Center
Thu 10:49:30 PM 28.5206 -95.8703 215° Southwest 398 458 21,900 878 Climbing Houston Center
Thu 10:50:32 PM 28.4297 -95.9428 215° Southwest 400 460 22,800 829 Climbing Houston Center
Thu 10:51:33 PM 28.3375 -96.0169 215° Southwest 400 460 23,600 787 Climbing Houston Center
Thu 10:52:34 PM 28.2453 -96.0892 215° Southwest 401 461 24,400 787 Climbing Houston Center
Thu 10:53:35 PM 28.1536 -96.1619 215° Southwest 402 463 25,200 787 Climbing Houston Center
Thu 10:54:36 PM 28.0614 -96.2361 215° Southwest 404 465 26,000 787 Climbing Houston Center
Thu 10:55:37 PM 27.9689 -96.3081 214° Southwest 403 464 26,800 787 Climbing Houston Center
Thu 10:56:38 PM 27.8756 -96.3825 215° Southwest 406 467 27,600 590 Climbing Houston Center
Thu 10:57:39 PM 27.7806 -96.4561 214° Southwest 410 472 28,000 197 Climbing Houston Center
Thu 10:58:40 PM 27.6614 -96.5497 215° Southwest 427 491 28,000  Level Houston Center
Thu 10:59:41 PM 27.5567 -96.6308 214° Southwest 445 512 28,000 -295 Level Houston Center
Thu 11:00:42 PM 27.4525 -96.7128 215° Southwest 454 522 27,400 -1,082 Descending Houston Center
Thu 11:01:43 PM 27.3450 -96.7967 215° Southwest 460 529 25,800 -1,869 Descending Houston Center
Thu 11:02:44 PM 27.2364 -96.8808 215° Southwest 468 539 23,600 -2,164 Descending Houston Center
Thu 11:03:45 PM 27.1319 -96.9600 214° Southwest 459 528 21,400 -2,066 Descending Houston Center
Thu 11:04:46 PM 27.0328 -97.0372 215° Southwest 441 507 19,400 -2,016 Descending Houston Center
Thu 11:05:47 PM 26.9347 -97.1125 214° Southwest 430 495 17,300 -2,100 Descending Houston Center
Thu 11:06:46 PM 26.8389 -97.1931 217° Southwest 394 453 15,200 -2,410 Descending Houston Center
Thu 11:07:49 PM 26.7500 -97.2708 218° Southwest 375 432 12,400 -2,468 Descending Houston Center
Thu 11:08:50 PM 26.6756 -97.3381 219° Southwest 346 398 10,100 -1,721 Descending Houston Center
Thu 11:09:51 PM 26.6092 -97.3958 218° Southwest 305 351 8,900 -1,131 Descending Houston Center
Thu 11:10:52 PM 26.5439 -97.4544 219° Southwest 302 348 7,800 -1,500 Descending Houston Center
Thu 11:12:07 PM 26.4633 -97.5281 219° Southwest 284 327 5,500 -1,918 Descending Houston Center
Thu 11:12:54 PM 26.4181 -97.5672 218° Southwest 272 313 3,900 -1,722 Descending Houston Center
Thu 11:13:55 PM 26.3633 -97.6156 218° Southwest 254 292 2,400 -1,163 Descending Houston Center
Thu 11:15:03 PM 26.3072 -97.6611 216° Southwest 195 224 1,400 -837 Descending Houston Center
Thu 11:16:04 PM 26.2714 -97.6589 177° South 112 129 600 -684 Descending Houston Center
Thu 11:16:57 PM 26.2414 -97.6589 180° South 126 145 100 -566 Descending Houston Center

Login

Don't have an account? Register now (free) for customized features, flight alerts, and more!